Flight Track Log - Related Links

Times and Time Zones

All times are in EDT time to prevent confusion due to time zone crossing. See the EGF3106 flight status page for this flight to view local times or setup timezone preferences in your user account.

Time Position Orientation Groundspeed Altitude Reporting Facility
EDT Latitude Longitude Course Direction KTS MPH feet Rate Location/Type
Fri 06:21:11 PM 30.4103 -87.1581 149° Southeast 216 249 2,800  Level Jacksonville Center
Fri 06:22:00 PM 30.6681 -86.8913 50° Northeast  Level FlightAware Approximate
Fri 06:22:12 PM 30.4497 -87.0947 54° Northeast 266 306 4,500  Level Jacksonville Center
Fri 06:23:00 PM 30.7370 -86.7942 54° Northeast  Level FlightAware Approximate
Fri 06:23:27 PM 30.5244 -87.0472 29° Northeast 267 307 7,100  Level Jacksonville Center
Fri 06:24:00 PM 30.8006 -86.6923 54° Northeast  Level FlightAware Approximate
Fri 06:24:27 PM 30.6036 -87.0483 359° North 280 322 9,400  Level Jacksonville Center
Fri 06:25:00 PM 30.8167 -86.5723 90° East  Level FlightAware Approximate
Fri 06:25:27 PM 30.6814 -87.0372 North 280 322 11,100  Level Jacksonville Center
Fri 06:26:27 PM 30.7261 -86.9450 61° Northeast 280 322 12,600 1,500 Climbing Jacksonville Center
Fri 06:27:27 PM 30.7669 -86.8403 66° East 299 344 14,100 1,450 Climbing Jacksonville Center
Fri 06:28:27 PM 30.8097 -86.7333 65° Northeast 332 382 15,500 1,350 Climbing Jacksonville Center
Fri 06:29:27 PM 30.8281 -86.6108 80° East 364 419 16,800 1,150 Climbing Jacksonville Center
Fri 06:30:27 PM 30.8233 -86.4872 93° East 371 427 17,800 1,150 Climbing Jacksonville Center
Fri 06:31:27 PM 30.8164 -86.3611 94° East 381 438 19,100 1,300 Climbing Jacksonville Center
Fri 06:32:27 PM 30.8158 -86.2281 90° East 395 455 20,400 1,300 Climbing Jacksonville Center
Fri 06:33:27 PM 30.8131 -86.0950 91° East 407 468 21,700 1,300 Climbing Jacksonville Center
Fri 06:34:27 PM 30.8078 -85.9594 93° East 412 474 23,000 1,300 Climbing Jacksonville Center
Fri 06:35:27 PM 30.8069 -85.8239 90° East 417 480 24,300 1,400 Climbing Jacksonville Center
Fri 06:36:27 PM 30.7742 -85.6997 107° East 417 480 25,800 1,500 Climbing Jacksonville Center
Fri 06:37:27 PM 30.6947 -85.6103 136° Southeast 380 437 27,300 1,350 Climbing Jacksonville Center
Fri 06:38:27 PM 30.6131 -85.5258 138° Southeast 380 437 28,500 1,200 Climbing Jacksonville Center
Fri 06:39:27 PM 30.5333 -85.4394 137° Southeast 385 443 29,700 1,200 Climbing Jacksonville Center
Fri 06:40:27 PM 30.4536 -85.3528 137° Southeast 392 451 30,900 1,200 Climbing Jacksonville Center
Fri 06:41:27 PM 30.3717 -85.2664 138° Southeast 392 451 32,100 1,200 Climbing Jacksonville Center
Fri 06:42:27 PM 30.2900 -85.1778 137° Southeast 392 451 33,300 1,150 Climbing Jacksonville Center
Fri 06:43:27 PM 30.2100 -85.0894 136° Southeast 392 451 34,400 1,050 Climbing Jacksonville Center
Fri 06:44:27 PM 30.1300 -85.0036 137° Southeast 392 451 35,400 1,000 Climbing Jacksonville Center
Fri 06:45:27 PM 30.0481 -84.9178 138° Southeast 392 451 36,400 800 Climbing Jacksonville Center
Fri 06:46:27 PM 29.9658 -84.8344 139° Southeast 392 451 37,000 300 Climbing Jacksonville Center
Fri 06:47:27 PM 29.8833 -84.7492 138° Southeast 387 445 37,000  Level Jacksonville Center
Fri 06:48:27 PM 29.8014 -84.6567 136° Southeast 398 458 37,000  Level Jacksonville Center
Fri 06:49:27 PM 29.7108 -84.5617 138° Southeast 419 482 37,000  Level Jacksonville Center
Fri 06:50:27 PM 29.6222 -84.4694 138° Southeast 430 495 37,000  Level Jacksonville Center
Fri 06:51:27 PM 29.5336 -84.3747 137° Southeast 435 501 37,000  Level Jacksonville Center
Fri 06:52:27 PM 29.4428 -84.2828 139° Southeast 435 501 37,000  Level Jacksonville Center
Fri 06:53:27 PM 29.3558 -84.1911 137° Southeast 435 501 37,000  Level Jacksonville Center
Fri 06:54:27 PM 29.2672 -84.0972 137° Southeast 435 501 37,000  Level Jacksonville Center
Fri 06:55:27 PM 29.1803 -84.0056 137° Southeast 435 501 37,000  Level Jacksonville Center
Fri 06:56:27 PM 29.0914 -83.9119 137° Southeast 435 501 37,000  Level Jacksonville Center
Fri 06:57:27 PM 28.9897 -83.8089 138° Southeast 435 501 37,000  Level Jacksonville Center
Fri 06:58:27 PM 28.9006 -83.7131 137° Southeast 435 501 37,000  Level Jacksonville Center
Fri 06:59:27 PM 28.8072 -83.6200 139° Southeast 441 507 37,000 -50 Level Jacksonville Center
Fri 07:00:27 PM 28.7181 -83.5294 138° Southeast 435 501 36,900  Descending Jacksonville Center
Fri 07:01:27 PM 28.6289 -83.4342 137° Southeast 435 501 37,000  Climbing Jacksonville Center
Fri 07:02:27 PM 28.5372 -83.3392 138° Southeast 440 506 36,900  Descending Jacksonville Center
Fri 07:03:27 PM 28.4458 -83.2444 138° Southeast 440 506 37,000 50 Climbing Jacksonville Center
Fri 07:04:27 PM 28.3519 -83.1519 139° Southeast 440 506 37,000  Level Jacksonville Center
Fri 07:05:27 PM 28.2603 -83.0575 138° Southeast 440 506 37,000  Level Jacksonville Center
Fri 07:06:05 PM 28.1986 -82.9947 138° Southeast 444 511 37,000  Level Miami Center
Fri 07:07:05 PM 28.1028 -82.8978 138° Southeast 464 534 37,000  Level Miami Center
Fri 07:08:05 PM 28.0208 -82.8136 138° Southeast 464 534 37,000  Level Miami Center
Fri 07:09:05 PM 27.9197 -82.7331 145° Southeast 457 526 37,000 -550 Level Miami Center
Fri 07:10:05 PM 27.8089 -82.6875 160° South 426 490 35,900 -1,600 Descending Miami Center
Fri 07:11:05 PM 27.7078 -82.6094 146° Southeast 432 497 33,800 -1,450 Descending Miami Center
Fri 07:12:05 PM 27.6111 -82.5181 140° Southeast 445 512 33,000 -400 Descending Miami Center
Fri 07:13:05 PM 27.5006 -82.4167 141° Southeast 458 527 33,000 -350 Level Miami Center
Fri 07:14:05 PM 27.4017 -82.3278 141° Southeast 458 527 32,300 -1,050 Descending Miami Center
Fri 07:15:05 PM 27.3089 -82.2392 140° Southeast 448 516 30,900 -1,450 Descending Miami Center
Fri 07:16:05 PM 27.2181 -82.1603 142° Southeast 454 522 29,400 -1,450 Descending Miami Center
Fri 07:17:05 PM 27.1189 -82.0694 141° Southeast 464 534 28,000 -1,450 Descending Miami Center
Fri 07:18:05 PM 27.0181 -81.9764 141° Southeast 469 540 26,500 -1,550 Descending Miami Center
Fri 07:19:05 PM 26.9125 -81.8833 142° Southeast 476 548 24,900 -1,600 Descending Miami Center
Fri 07:20:05 PM 26.8094 -81.7906 141° Southeast 476 548 23,300 -1,600 Descending Miami Center
Fri 07:21:05 PM 26.7122 -81.7028 141° Southeast 471 542 21,700 -1,900 Descending Miami Center
Fri 07:22:05 PM 26.6108 -81.6103 141° Southeast 444 511 19,500 -1,350 Descending Miami Center
Fri 07:23:05 PM 26.5175 -81.5253 141° Southeast 438 504 19,000 -250 Descending Miami Center
Fri 07:24:05 PM 26.4383 -81.4550 142° Southeast 423 487 19,000 -200 Level Miami Center
Fri 07:25:05 PM 26.3469 -81.3703 140° Southeast 423 487 18,600 -1,100 Descending Miami Center
Fri 07:26:05 PM 26.2472 -81.2831 142° Southeast 423 487 16,800 -1,900 Descending Miami Center
Fri 07:27:05 PM 26.1558 -81.2011 141° Southeast 418 481 14,800 -2,020 Descending Miami Center
Fri 07:27:46 PM 26.0925 -81.1503 144° Southeast 399 459 13,400 -2,000 Descending Miami Center
Fri 07:28:05 PM 26.0703 -81.1264 136° Southeast 410 472 12,800 -1,890 Descending Miami Center
Fri 07:28:59 PM 25.9928 -81.0611 143° Southeast 370 426 11,100 -1,448 Descending Miami Center
Fri 07:30:01 PM 25.9156 -80.9914 141° Southeast 335 386 10,000 -976 Descending Miami Center
Fri 07:31:02 PM 25.8886 -80.9097 110° East 289 333 9,100 -1,230 Descending Miami Center
Fri 07:32:03 PM 25.8886 -80.8267 90° East 273 314 7,500 -1,610 Descending Miami Center
Fri 07:33:05 PM 25.8889 -80.7458 90° East 266 306 5,800 -1,721 Descending Miami Center
Fri 07:34:05 PM 25.8847 -80.6603 93° East 256 295 4,000 -1,400 Descending Miami Center
Fri 07:35:05 PM 25.8825 -80.5839 92° East 251 289 3,000 -500 Descending Miami Center
Fri 07:36:05 PM 25.8781 -80.5144 94° East 240 276 3,000 -50 Level Miami Center
Fri 07:37:05 PM 25.8733 -80.4475 94° East 234 269 2,900 -528 Descending Miami Center
Fri 07:38:10 PM 25.8394 -80.3889 123° Southeast 198 228 1,900 -909 Descending Miami Center
Fri 07:39:17 PM 25.8175 -80.3442 119° Southeast 125 144 900 -844 Descending Miami Center
Fri 07:40:18 PM 25.7972 -80.3092 123° Southeast 128 147 100 -787 Descending Miami Center

Login

Don't have an account? Register now (free) for customized features, flight alerts, and more!